Time;durP1;ratioP1;P1;durP2;ratioP2;P2;SDS_P1;SDS_P2;PMS_P1;PMS_P2;Temp;Humidity;BMP_temperature;BMP_pressure;BME280_temperature;BME280_humidity;BME280_pressure;Samples;Min_cycle;Max_cycle;Signal;HPM_P1;HPM_P2
2021/05/28 00:02:18;;;;;;;19.63;12.43;;;7.90;99.90;;;;;;5032122;28;20041;-65
2021/05/28 00:04:44;;;;;;;17.13;11.25;;;7.90;99.90;;;;;;5032370;28;20038;-65
2021/05/28 00:07:10;;;;;;;21.08;12.40;;;7.90;99.90;;;;;;5022340;28;20045;-65
2021/05/28 00:09:36;;;;;;;21.60;12.15;;;7.90;99.90;;;;;;5036167;28;20120;-65
2021/05/28 00:12:02;;;;;;;20.55;12.85;;;7.90;99.90;;;;;;5026120;28;20041;-64
2021/05/28 00:14:28;;;;;;;20.20;12.25;;;8.00;99.90;;;;;;5033385;28;20060;-64
2021/05/28 00:16:55;;;;;;;15.80;11.77;;;8.00;99.90;;;;;;5023844;28;20054;-64
2021/05/28 00:19:24;;;;;;;18.17;10.82;;;8.10;99.90;;;;;;5033180;28;20046;-64
2021/05/28 00:21:50;;;;;;;19.42;12.55;;;8.10;99.90;;;;;;5029221;28;20052;-64
2021/05/28 00:24:16;;;;;;;21.63;11.57;;;8.10;99.90;;;;;;5031078;28;20061;-65
2021/05/28 00:26:42;;;;;;;21.15;10.68;;;8.20;99.90;;;;;;5026424;28;20092;-65
2021/05/28 00:29:08;;;;;;;22.65;11.75;;;8.20;99.90;;;;;;5032473;28;20045;-65
2021/05/28 00:31:35;;;;;;;24.58;11.73;;;8.20;99.90;;;;;;5034375;28;20036;-65
2021/05/28 00:34:00;;;;;;;17.73;11.13;;;8.30;99.90;;;;;;5030082;28;20083;-65
2021/05/28 00:36:26;;;;;;;21.40;12.57;;;8.30;99.90;;;;;;5027478;28;20033;-65
2021/05/28 00:38:52;;;;;;;17.42;11.68;;;8.30;99.90;;;;;;5033720;28;20144;-65
2021/05/28 00:41:18;;;;;;;21.40;12.93;;;8.30;99.90;;;;;;4990585;28;1116343;-65
2021/05/28 00:43:44;;;;;;;22.92;12.65;;;8.30;99.90;;;;;;5025332;28;20045;-65
2021/05/28 00:46:10;;;;;;;22.92;13.80;;;8.40;99.90;;;;;;5038092;28;20038;-65
2021/05/28 00:48:36;;;;;;;23.40;13.65;;;8.30;99.90;;;;;;5030816;28;20053;-65
2021/05/28 00:51:04;;;;;;;24.17;14.27;;;8.40;99.90;;;;;;5037503;28;20055;-65
2021/05/28 00:53:31;;;;;;;24.83;13.82;;;8.40;99.90;;;;;;5030487;28;20048;-65
2021/05/28 00:55:59;;;;;;;20.55;13.60;;;8.40;99.90;;;;;;5033793;28;20037;-65
2021/05/28 00:58:25;;;;;;;24.00;13.50;;;8.40;99.90;;;;;;5030699;28;20045;-65
2021/05/28 01:00:51;;;;;;;22.45;15.20;;;8.30;99.90;;;;;;5033852;28;20045;-65
2021/05/28 01:03:17;;;;;;;24.35;14.65;;;8.40;99.90;;;;;;5029760;28;20113;-65
2021/05/28 01:05:43;;;;;;;26.77;13.77;;;8.40;99.90;;;;;;5033650;28;20468;-65
2021/05/28 01:08:09;;;;;;;27.27;13.60;;;8.40;99.90;;;;;;5026211;28;20290;-65
2021/05/28 01:10:35;;;;;;;28.30;13.65;;;8.40;99.90;;;;;;5033396;28;20048;-65
2021/05/28 01:13:10;;;;;;;27.02;13.40;;;8.40;99.90;;;;;;5031295;28;20567;-65
2021/05/28 01:15:38;;;;;;;21.08;12.77;;;8.40;99.90;;;;;;5032590;28;20057;-65
2021/05/28 01:18:04;;;;;;;25.98;12.70;;;8.40;99.90;;;;;;5023426;28;20469;-65
2021/05/28 01:20:31;;;;;;;22.63;12.90;;;8.40;99.90;;;;;;5039969;28;20485;-65
2021/05/28 01:22:58;;;;;;;17.20;11.60;;;8.50;99.90;;;;;;5039866;28;20041;-65
2021/05/28 01:25:26;;;;;;;22.83;11.95;;;8.40;99.90;;;;;;5024009;28;20041;-65
2021/05/28 01:27:52;;;;;;;17.45;10.70;;;8.50;99.90;;;;;;5030878;28;20112;-65
2021/05/28 01:30:20;;;;;;;19.15;10.57;;;8.50;99.90;;;;;;5028132;28;20067;-65
2021/05/28 01:32:46;;;;;;;17.02;10.40;;;8.50;99.90;;;;;;5031208;28;20041;-65
2021/05/28 01:35:14;;;;;;;18.13;10.35;;;8.40;99.90;;;;;;5023507;28;20041;-65
2021/05/28 01:37:41;;;;;;;24.60;9.52;;;8.50;99.90;;;;;;5027658;28;20079;-65
2021/05/28 01:40:08;;;;;;;17.60;9.82;;;8.50;99.90;;;;;;5029410;28;20084;-65
2021/05/28 01:42:34;;;;;;;18.48;9.80;;;8.50;99.90;;;;;;5030334;28;20045;-65
2021/05/28 01:45:03;;;;;;;16.25;9.75;;;8.50;99.90;;;;;;5024468;28;20037;-65
2021/05/28 01:47:29;;;;;;;19.00;9.77;;;8.50;99.90;;;;;;5031981;28;20535;-65
2021/05/28 01:49:56;;;;;;;19.92;10.32;;;8.50;99.90;;;;;;5018816;28;20136;-65
2021/05/28 01:52:23;;;;;;;17.48;10.65;;;8.50;99.90;;;;;;5029059;28;20036;-65
2021/05/28 01:54:49;;;;;;;17.60;10.43;;;8.50;99.90;;;;;;5023892;28;20034;-65
2021/05/28 01:57:15;;;;;;;17.50;10.68;;;8.50;99.90;;;;;;5036604;28;20045;-65
2021/05/28 01:59:43;;;;;;;18.98;10.93;;;8.40;99.90;;;;;;5027629;28;20041;-65
2021/05/28 02:02:08;;;;;;;17.55;10.55;;;8.50;99.90;;;;;;5028642;28;20059;-65
2021/05/28 02:04:35;;;;;;;18.67;10.18;;;8.40;99.90;;;;;;5032007;28;20120;-65
2021/05/28 02:07:01;;;;;;;18.88;9.07;;;8.50;99.90;;;;;;5026328;28;20033;-65
2021/05/28 02:09:26;;;;;;;15.93;9.02;;;8.40;99.90;;;;;;5024572;28;20065;-65
2021/05/28 02:11:52;;;;;;;19.15;8.93;;;8.40;99.90;;;;;;5020187;28;20461;-65
2021/05/28 02:14:18;;;;;;;14.82;8.57;;;8.40;99.90;;;;;;5033456;28;20040;-65
2021/05/28 02:16:44;;;;;;;19.67;9.60;;;8.40;99.90;;;;;;5023886;28;20500;-65
2021/05/28 02:19:10;;;;;;;19.35;9.13;;;8.40;99.90;;;;;;5027290;28;20129;-65
2021/05/28 02:21:37;;;;;;;14.18;8.80;;;8.40;99.90;;;;;;5015954;28;20525;-65
2021/05/28 02:24:04;;;;;;;16.30;8.75;;;8.40;99.90;;;;;;5031504;28;20064;-65
2021/05/28 02:26:30;;;;;;;15.90;8.82;;;8.40;99.90;;;;;;5020710;28;20116;-65
2021/05/28 02:28:56;;;;;;;17.38;8.50;;;8.40;99.90;;;;;;5021791;28;20120;-65
2021/05/28 02:31:22;;;;;;;15.85;8.38;;;8.50;99.90;;;;;;5025974;28;20041;-65
2021/05/28 02:33:47;;;;;;;16.17;8.88;;;8.50;99.90;;;;;;5034165;28;20307;-65
2021/05/28 02:36:13;;;;;;;14.75;8.25;;;8.50;99.90;;;;;;5018074;28;22599;-65
2021/05/28 02:38:39;;;;;;;20.85;8.85;;;8.50;99.90;;;;;;5027679;28;20049;-65
2021/05/28 02:41:05;;;;;;;19.55;8.48;;;8.50;99.90;;;;;;5035883;28;20053;-65
2021/05/28 02:43:31;;;;;;;16.98;9.07;;;8.50;99.90;;;;;;5029553;28;20079;-65
2021/05/28 02:45:57;;;;;;;18.10;9.20;;;8.50;99.90;;;;;;5024557;28;20134;-65
2021/05/28 02:48:23;;;;;;;16.13;8.52;;;8.50;99.90;;;;;;5023566;28;20059;-65
2021/05/28 02:50:49;;;;;;;16.60;9.48;;;8.50;99.90;;;;;;5042940;28;20323;-65
2021/05/28 02:53:18;;;;;;;16.45;8.77;;;8.60;99.90;;;;;;5013254;28;20529;-65
2021/05/28 02:55:44;;;;;;;17.23;10.10;;;8.50;99.90;;;;;;5027476;28;20041;-65
2021/05/28 02:58:11;;;;;;;18.00;9.75;;;8.70;99.90;;;;;;5024964;28;20065;-65
2021/05/28 03:00:37;;;;;;;16.77;9.57;;;8.60;99.90;;;;;;5029254;28;20041;-65
2021/05/28 03:03:04;;;;;;;19.85;9.35;;;8.60;99.90;;;;;;5017480;28;20391;-65
2021/05/28 03:05:30;;;;;;;16.63;10.20;;;8.60;99.90;;;;;;5032087;28;20050;-65
2021/05/28 03:07:56;;;;;;;19.20;10.93;;;8.60;99.90;;;;;;5027826;28;20069;-65
2021/05/28 03:10:22;;;;;;;23.02;10.93;;;8.60;99.90;;;;;;5028553;28;20037;-65
2021/05/28 03:12:47;;;;;;;21.20;11.27;;;8.60;99.90;;;;;;5020631;28;20508;-65
2021/05/28 03:15:14;;;;;;;22.63;10.85;;;8.60;99.90;;;;;;5034125;28;20075;-65
2021/05/28 03:17:43;;;;;;;21.08;11.38;;;8.60;99.90;;;;;;5028263;28;20041;-65
2021/05/28 03:20:18;;;;;;;19.17;10.45;;;8.60;99.90;;;;;;5030449;28;20478;-65
2021/05/28 03:22:44;;;;;;;;;;;8.60;99.90;;;;;;5017170;28;20377;-65
2021/05/28 03:25:12;;;;;;;18.60;9.90;;;8.60;99.90;;;;;;5039571;28;19926;-66
2021/05/28 03:27:39;;;;;;;24.92;11.43;;;8.60;99.90;;;;;;5033066;28;20041;-65
2021/05/28 03:30:07;;;;;;;15.68;10.25;;;8.60;99.90;;;;;;5023060;28;20045;-65
2021/05/28 03:32:33;;;;;;;17.35;8.90;;;8.70;99.90;;;;;;5031433;28;20049;-65
2021/05/28 03:34:59;;;;;;;17.48;7.97;;;8.70;99.90;;;;;;5033239;28;20075;-65
2021/05/28 03:37:26;;;;;;;14.93;8.60;;;8.70;99.90;;;;;;5033810;28;20073;-65
2021/05/28 03:39:52;;;;;;;14.32;8.10;;;8.70;99.90;;;;;;5027169;28;20044;-65
2021/05/28 03:42:19;;;;;;;16.42;8.13;;;8.70;99.90;;;;;;5035126;28;20382;-65
2021/05/28 03:44:46;;;;;;;12.63;7.05;;;8.70;99.90;;;;;;5027534;28;20043;-65
2021/05/28 03:47:12;;;;;;;15.88;7.93;;;8.70;99.90;;;;;;5023601;28;20535;-65
2021/05/28 03:49:41;;;;;;;18.13;7.70;;;8.80;99.90;;;;;;5020975;28;20447;-65
2021/05/28 03:52:09;;;;;;;16.02;8.27;;;8.70;99.90;;;;;;5034796;28;20049;-65
2021/05/28 03:54:35;;;;;;;14.85;8.35;;;8.70;99.90;;;;;;5026915;28;20037;-65
2021/05/28 03:57:01;;;;;;;16.45;7.28;;;8.70;99.90;;;;;;5027873;28;20041;-65
2021/05/28 03:59:47;;;;;;;10.93;7.22;;;8.80;99.90;;;;;;5015961;28;20489;-65
2021/05/28 04:02:13;;;;;;;13.45;7.43;;;8.70;99.90;;;;;;5029803;28;20037;-65
2021/05/28 04:04:38;;;;;;;17.35;7.18;;;8.80;99.90;;;;;;5027986;28;20054;-65
2021/05/28 04:07:04;;;;;;;16.15;8.00;;;8.80;99.90;;;;;;5029208;28;20055;-65
2021/05/28 04:09:31;;;;;;;12.30;7.20;;;8.80;99.90;;;;;;5025848;28;20541;-65
2021/05/28 04:11:57;;;;;;;13.75;6.50;;;8.80;99.90;;;;;;5027428;28;20068;-65
2021/05/28 04:14:22;;;;;;;9.75;6.18;;;8.90;99.90;;;;;;5029129;28;20401;-65
2021/05/28 04:16:48;;;;;;;13.73;7.03;;;8.80;99.90;;;;;;5017940;28;20050;-65
2021/05/28 04:19:14;;;;;;;11.70;6.40;;;8.90;99.90;;;;;;5026212;28;20037;-65
2021/05/28 04:21:40;;;;;;;12.05;6.45;;;8.80;99.90;;;;;;5030458;28;20348;-65
2021/05/28 04:24:06;;;;;;;13.98;6.70;;;8.80;99.90;;;;;;5028293;28;20453;-65
2021/05/28 04:26:33;;;;;;;15.35;6.95;;;8.80;99.90;;;;;;5030510;28;20030;-65
2021/05/28 04:28:59;;;;;;;12.13;6.68;;;8.80;99.90;;;;;;5034745;28;20451;-65
2021/05/28 04:31:25;;;;;;;12.75;6.63;;;8.90;99.90;;;;;;5022849;28;20131;-65
2021/05/28 04:33:50;;;;;;;15.27;6.95;;;8.90;99.90;;;;;;5032589;28;20033;-65
2021/05/28 04:36:16;;;;;;;11.73;6.80;;;8.90;99.90;;;;;;5025813;28;20121;-65
2021/05/28 04:38:42;;;;;;;16.88;7.32;;;9.00;99.90;;;;;;5030101;28;20080;-65
2021/05/28 04:41:08;;;;;;;13.68;6.75;;;9.10;99.90;;;;;;5020894;28;20180;-65
2021/05/28 04:43:34;;;;;;;18.63;6.90;;;9.20;99.90;;;;;;5031784;28;20049;-65
2021/05/28 04:46:00;;;;;;;12.98;6.80;;;9.20;99.90;;;;;;5029684;28;20124;-65
2021/05/28 04:48:26;;;;;;;14.38;7.80;;;9.20;99.90;;;;;;5031785;28;20485;-66
2021/05/28 04:50:51;;;;;;;12.93;7.30;;;9.20;99.90;;;;;;5027035;28;20133;-65
2021/05/28 04:53:18;;;;;;;14.57;7.45;;;9.20;99.90;;;;;;5033700;28;20045;-65
2021/05/28 04:55:44;;;;;;;18.45;8.57;;;9.20;99.90;;;;;;5032581;28;20090;-66
2021/05/28 04:58:10;;;;;;;19.77;7.88;;;9.20;99.90;;;;;;5027133;28;20045;-65
2021/05/28 05:00:35;;;;;;;14.65;8.18;;;9.20;99.90;;;;;;5032366;28;20133;-65
2021/05/28 05:03:03;;;;;;;13.65;8.50;;;9.20;99.90;;;;;;5025640;28;20164;-65
2021/05/28 05:05:28;;;;;;;14.15;8.05;;;9.20;99.90;;;;;;5037641;28;20096;-65
2021/05/28 05:07:56;;;;;;;15.85;8.75;;;9.30;99.90;;;;;;5022694;28;20128;-65
2021/05/28 05:10:22;;;;;;;15.60;8.90;;;9.30;99.90;;;;;;5028556;28;20049;-65
2021/05/28 05:12:48;;;;;;;13.68;6.78;;;9.40;99.90;;;;;;5022634;28;20124;-65
2021/05/28 05:15:14;;;;;;;13.50;7.78;;;9.40;99.90;;;;;;5030716;28;20045;-65
2021/05/28 05:17:40;;;;;;;15.25;6.65;;;9.40;99.90;;;;;;5020553;28;20145;-66
2021/05/28 05:20:08;;;;;;;14.40;7.03;;;9.50;99.90;;;;;;5034587;28;20550;-66
2021/05/28 05:22:35;;;;;;;14.63;7.22;;;9.50;99.90;;;;;;5023451;28;20401;-66
2021/05/28 05:25:01;;;;;;;15.40;6.65;;;9.60;99.90;;;;;;5034503;28;20041;-65
2021/05/28 05:27:26;;;;;;;15.90;6.63;;;9.60;99.90;;;;;;5036036;28;20055;-65
2021/05/28 05:29:52;;;;;;;16.58;6.75;;;9.60;99.90;;;;;;5025571;28;20430;-65
2021/05/28 05:32:18;;;;;;;16.00;7.65;;;9.70;99.90;;;;;;5030304;28;20107;-65
2021/05/28 05:34:45;;;;;;;16.20;7.63;;;9.70;99.90;;;;;;5022933;28;20201;-66
2021/05/28 05:37:11;;;;;;;15.45;8.18;;;9.70;99.90;;;;;;5027653;28;20474;-66
2021/05/28 05:39:37;;;;;;;15.15;8.05;;;9.80;99.90;;;;;;5027573;28;20103;-66
2021/05/28 05:42:03;;;;;;;16.05;7.20;;;9.80;99.90;;;;;;5029101;28;20041;-66
2021/05/28 05:44:29;;;;;;;12.52;7.70;;;9.90;99.90;;;;;;5029664;28;20045;-66
2021/05/28 05:46:56;;;;;;;16.88;9.32;;;9.90;99.90;;;;;;5041713;28;20068;-66
2021/05/28 05:49:22;;;;;;;17.63;8.75;;;10.00;99.90;;;;;;5026506;28;20045;-66
2021/05/28 05:51:48;;;;;;;15.80;8.32;;;10.00;99.90;;;;;;5030344;28;20038;-66
2021/05/28 05:54:14;;;;;;;14.15;8.52;;;10.00;99.90;;;;;;5028716;28;20051;-66
2021/05/28 05:56:40;;;;;;;14.57;7.93;;;10.10;99.90;;;;;;5034598;28;20029;-66
2021/05/28 05:59:06;;;;;;;14.18;7.88;;;10.10;99.90;;;;;;5025513;28;20049;-66
2021/05/28 06:01:33;;;;;;;19.40;7.70;;;10.20;99.90;;;;;;5038032;28;20033;-66
2021/05/28 06:04:00;;;;;;;14.27;7.30;;;10.30;99.90;;;;;;5036356;28;20061;-65
2021/05/28 06:06:26;;;;;;;13.68;7.30;;;10.50;99.90;;;;;;5030823;28;20408;-65
2021/05/28 06:08:53;;;;;;;15.90;6.93;;;10.60;99.90;;;;;;5034559;28;20132;-65
2021/05/28 06:11:19;;;;;;;14.23;7.47;;;10.70;99.90;;;;;;5026124;28;20037;-65
2021/05/28 06:13:44;;;;;;;15.65;7.32;;;10.80;99.90;;;;;;5040462;28;20037;-65
2021/05/28 06:16:11;;;;;;;13.73;6.93;;;10.80;99.90;;;;;;5022181;28;20053;-65
2021/05/28 06:18:37;;;;;;;13.98;7.53;;;10.90;99.90;;;;;;5031530;28;20099;-65
2021/05/28 06:21:03;;;;;;;12.80;7.85;;;10.90;99.90;;;;;;5026693;28;20049;-65
2021/05/28 06:23:28;;;;;;;15.45;7.38;;;10.90;99.90;;;;;;5038185;28;20425;-65
2021/05/28 06:25:56;;;;;;;15.57;7.72;;;11.00;99.90;;;;;;5024150;28;20041;-65
2021/05/28 06:28:22;;;;;;;14.13;6.50;;;11.00;99.90;;;;;;5034372;28;20393;-65
2021/05/28 06:30:47;;;;;;;12.20;6.00;;;11.10;99.90;;;;;;5030995;28;20042;-65
2021/05/28 06:33:13;;;;;;;11.02;6.28;;;11.20;99.90;;;;;;5034139;28;20041;-65
2021/05/28 06:35:39;;;;;;;13.90;6.80;;;11.30;99.90;;;;;;5018039;28;20098;-65
2021/05/28 06:38:08;;;;;;;10.50;7.32;;;11.50;99.90;;;;;;5037963;28;20042;-66
2021/05/28 06:40:35;;;;;;;10.43;6.28;;;11.50;99.90;;;;;;5026907;28;20076;-65
2021/05/28 06:43:01;;;;;;;15.75;7.95;;;11.50;99.90;;;;;;5031607;28;20060;-65
2021/05/28 06:45:27;;;;;;;10.73;6.68;;;11.50;99.90;;;;;;5036188;28;20099;-66
2021/05/28 06:47:53;;;;;;;11.93;5.82;;;11.60;99.90;;;;;;5027541;28;20128;-66
2021/05/28 06:50:19;;;;;;;12.65;6.70;;;11.70;99.90;;;;;;5033047;28;20052;-66
2021/05/28 06:52:46;;;;;;;12.02;6.40;;;11.80;99.90;;;;;;5020067;28;20034;-65
2021/05/28 06:55:13;;;;;;;14.68;6.60;;;11.90;99.90;;;;;;5030420;28;20070;-66
2021/05/28 06:57:39;;;;;;;11.82;5.22;;;12.10;99.90;;;;;;5025685;28;20054;-66
2021/05/28 07:00:07;;;;;;;13.27;7.10;;;12.30;99.90;;;;;;5033173;28;20055;-66
2021/05/28 07:02:33;;;;;;;15.35;5.57;;;12.30;99.90;;;;;;5027182;28;20533;-66
2021/05/28 07:04:59;;;;;;;13.25;6.03;;;12.40;99.90;;;;;;5028906;28;20402;-66
2021/05/28 07:07:25;;;;;;;10.70;6.20;;;12.30;99.90;;;;;;5026377;28;20072;-66
2021/05/28 07:09:51;;;;;;;10.20;5.80;;;12.30;99.90;;;;;;5032409;28;20049;-66
2021/05/28 07:12:16;;;;;;;12.82;5.95;;;12.40;99.90;;;;;;5024125;28;20039;-66
2021/05/28 07:14:42;;;;;;;10.73;5.20;;;12.50;99.90;;;;;;5034326;28;20042;-65
2021/05/28 07:17:08;;;;;;;8.10;4.97;;;12.70;99.90;;;;;;5023913;28;20469;-65
2021/05/28 07:19:34;;;;;;;9.07;5.25;;;12.70;99.90;;;;;;5031538;28;20460;-65
2021/05/28 07:22:00;;;;;;;9.88;5.18;;;12.70;99.90;;;;;;5024190;28;20406;-65
2021/05/28 07:24:26;;;;;;;10.88;5.38;;;12.70;99.90;;;;;;5033669;28;20041;-65
2021/05/28 07:26:52;;;;;;;7.43;4.95;;;12.80;99.90;;;;;;5031200;28;20040;-65
2021/05/28 07:29:17;;;;;;;8.48;4.90;;;13.00;99.90;;;;;;5029890;28;20069;-65
2021/05/28 07:31:43;;;;;;;11.45;5.28;;;13.00;99.90;;;;;;5032784;28;20135;-65
2021/05/28 07:34:09;;;;;;;11.88;5.13;;;13.00;99.90;;;;;;5023574;28;20091;-65
2021/05/28 07:36:35;;;;;;;7.47;4.40;;;13.10;99.10;;;;;;5029799;28;20029;-65
2021/05/28 07:39:01;;;;;;;9.82;5.55;;;13.10;99.90;;;;;;5031717;28;20033;-65
2021/05/28 07:41:27;;;;;;;9.40;4.85;;;13.10;99.60;;;;;;5029056;28;20571;-65
2021/05/28 07:43:53;;;;;;;9.68;5.28;;;13.20;99.60;;;;;;5022093;28;20037;-65
2021/05/28 07:46:19;;;;;;;10.75;5.43;;;13.20;98.80;;;;;;5030752;28;20194;-65
2021/05/28 07:48:45;;;;;;;11.20;6.00;;;13.20;98.70;;;;;;5033419;28;20037;-65
2021/05/28 07:51:10;;;;;;;9.98;5.50;;;13.20;98.50;;;;;;5030129;28;20041;-65
2021/05/28 07:53:36;;;;;;;7.82;4.47;;;13.20;98.20;;;;;;5025895;28;20120;-66
2021/05/28 07:56:06;;;;;;;8.85;4.90;;;13.30;98.50;;;;;;5029772;28;20038;-65
2021/05/28 07:58:35;;;;;;;9.80;4.65;;;13.40;98.20;;;;;;5028353;28;20055;-65
2021/05/28 08:01:02;;;;;;;9.85;4.72;;;13.50;98.00;;;;;;5032986;28;20144;-65
2021/05/28 08:03:28;;;;;;;8.02;5.40;;;13.60;97.10;;;;;;5032961;28;20095;-65
2021/05/28 08:05:55;;;;;;;8.10;5.47;;;13.70;98.30;;;;;;5026197;28;20057;-65
2021/05/28 08:08:27;;;;;;;9.77;5.57;;;13.80;97.70;;;;;;5032226;28;20159;-65
2021/05/28 08:10:54;;;;;;;8.77;5.05;;;14.00;98.20;;;;;;5025404;28;20566;-65
2021/05/28 08:13:20;;;;;;;7.68;4.65;;;14.10;97.30;;;;;;5033496;28;20048;-65
2021/05/28 08:15:47;;;;;;;7.30;4.25;;;14.20;97.60;;;;;;5026648;28;20530;-65
2021/05/28 08:18:13;;;;;;;11.13;5.18;;;14.40;96.70;;;;;;5032871;28;20251;-65
2021/05/28 08:20:39;;;;;;;11.65;4.53;;;14.60;97.30;;;;;;5027465;28;20045;-65
2021/05/28 08:23:05;;;;;;;8.18;5.03;;;14.70;96.70;;;;;;5040529;28;20489;-65
2021/05/28 08:25:31;;;;;;;10.73;4.47;;;15.00;96.20;;;;;;5033807;28;20041;-65
2021/05/28 08:27:57;;;;;;;7.78;4.78;;;15.20;96.70;;;;;;5039606;28;20068;-65
2021/05/28 08:30:23;;;;;;;9.98;4.07;;;15.30;96.30;;;;;;5031138;28;20095;-66
2021/05/28 08:32:49;;;;;;;7.35;4.20;;;15.40;96.20;;;;;;5032227;28;20041;-66
2021/05/28 08:35:15;;;;;;;8.15;4.53;;;15.50;94.70;;;;;;5026352;28;20045;-66
2021/05/28 08:37:41;;;;;;;7.15;4.28;;;15.80;96.00;;;;;;5032360;28;20121;-68
2021/05/28 08:40:09;;;;;;;9.18;4.53;;;16.00;94.90;;;;;;5024849;28;20049;-66
2021/05/28 08:42:35;;;;;;;8.07;3.80;;;16.20;92.70;;;;;;5041581;28;20136;-66
2021/05/28 08:45:03;;;;;;;7.65;4.25;;;16.30;93.60;;;;;;5030009;28;20064;-66
2021/05/28 08:47:29;;;;;;;7.20;4.50;;;16.60;91.50;;;;;;5028038;28;20149;-66
2021/05/28 08:49:56;;;;;;;8.18;4.30;;;16.90;92.00;;;;;;5041767;28;20109;-67
2021/05/28 08:52:22;;;;;;;6.35;3.53;;;16.90;91.70;;;;;;5034488;28;20133;-67
2021/05/28 08:54:49;;;;;;;6.15;4.03;;;16.90;91.60;;;;;;5026764;28;20045;-67
2021/05/28 08:57:20;;;;;;;6.68;3.75;;;16.80;83.30;;;;;;5025858;28;20603;-67
2021/05/28 08:59:46;;;;;;;8.68;4.00;;;16.90;88.90;;;;;;5041880;28;20144;-68
2021/05/28 09:02:32;;;;;;;11.27;4.30;;;17.10;90.60;;;;;;5029259;28;20045;-66
2021/05/28 09:05:12;;;;;;;6.35;3.58;;;17.40;79.70;;;;;;5027736;28;20513;-66
2021/05/28 09:07:39;;;;;;;6.25;4.13;;;17.50;90.00;;;;;;5029118;28;20433;-66
2021/05/28 09:10:29;;;;;;;6.60;3.60;;;17.50;91.40;;;;;;5037795;28;20045;-66
2021/05/28 09:13:19;;;;;;;8.68;4.00;;;17.40;82.70;;;;;;5031004;28;20037;-66
2021/05/28 09:15:47;;;;;;;7.57;4.03;;;17.70;93.30;;;;;;5037113;28;20443;-67
2021/05/28 09:18:14;;;;;;;7.43;3.95;;;17.90;91.10;;;;;;5030887;28;20076;-67
2021/05/28 09:20:44;;;;;;;9.88;4.15;;;18.00;90.10;;;;;;5020408;28;20086;-68
2021/05/28 09:23:19;;;;;;;9.15;4.03;;;18.20;91.50;;;;;;5034229;28;20371;-68
2021/05/28 09:25:56;;;;;;;7.75;3.50;;;18.40;83.90;;;;;;5042479;28;20121;-67
2021/05/28 09:28:23;;;;;;;5.75;3.60;;;18.60;88.20;;;;;;5034132;28;20041;-68
2021/05/28 09:31:00;;;;;;;6.03;3.80;;;18.50;90.60;;;;;;5031269;28;20050;-68
2021/05/28 09:33:30;;;;;;;5.68;3.83;;;18.60;83.20;;;;;;5034461;28;20034;-68
2021/05/28 09:36:15;;;;;;;7.15;3.20;;;18.50;83.50;;;;;;5036169;28;20092;-68
2021/05/28 09:39:17;;;;;;;7.65;3.90;;;18.80;76.50;;;;;;5028356;28;20055;-68
2021/05/28 09:41:52;;;;;;;6.68;4.40;;;19.00;76.50;;;;;;4950347;28;20055;-68
2021/05/28 09:44:25;;;;;;;6.28;4.30;;;19.00;83.70;;;;;;5013352;28;20055;-69
2021/05/28 09:46:57;;;;;;;6.33;3.57;;;19.00;87.50;;;;;;5042965;28;20187;-69
2021/05/28 09:49:26;;;;;;;7.63;4.78;;;19.10;86.10;;;;;;5034775;28;20492;-68
2021/05/28 09:52:11;;;;;;;5.55;3.90;;;18.90;81.30;;;;;;5031807;28;20068;-68
2021/05/28 09:54:37;;;;;;;;;;;18.70;72.90;;;;;;5030205;28;20033;-68
2021/05/28 09:57:04;;;;;;;5.47;3.40;;;18.30;73.00;;;;;;5030843;28;19925;-68
2021/05/28 09:59:51;;;;;;;6.82;3.15;;;18.10;85.50;;;;;;5037453;28;20499;-68
2021/05/28 10:02:32;;;;;;;6.10;3.25;;;18.20;76.60;;;;;;5033836;28;20073;-67
2021/05/28 10:04:59;;;;;;;5.10;3.60;;;18.40;82.00;;;;;;5029433;28;20392;-68
2021/05/28 10:07:26;;;;;;;5.07;3.42;;;18.60;80.60;;;;;;5035417;28;20049;-69
2021/05/28 10:09:56;;;;;;;5.20;3.20;;;18.50;76.80;;;;;;5031669;28;20047;-68
2021/05/28 10:12:23;;;;;;;6.53;3.17;;;18.40;78.60;;;;;;5032315;28;20399;-71
2021/05/28 10:14:51;;;;;;;5.80;2.90;;;18.40;77.30;;;;;;5020643;28;20046;-71
2021/05/28 10:17:17;;;;;;;6.15;3.20;;;18.40;76.80;;;;;;5029997;28;20493;-72
2021/05/28 10:19:44;;;;;;;4.90;3.38;;;18.50;80.30;;;;;;5029093;28;20087;-72
2021/05/28 10:22:10;;;;;;;5.55;3.35;;;18.40;72.60;;;;;;5033437;28;20036;-72
2021/05/28 10:24:36;;;;;;;7.45;3.17;;;18.40;73.70;;;;;;5028566;28;20036;-72
2021/05/28 10:27:02;;;;;;;4.88;3.38;;;18.50;73.00;;;;;;5030566;28;20039;-72
2021/05/28 10:29:29;;;;;;;5.78;2.70;;;18.70;75.00;;;;;;5027445;28;20779;-72
2021/05/28 10:32:10;;;;;;;5.97;3.67;;;18.80;72.70;;;;;;5033741;28;20071;-72
2021/05/28 10:35:01;;;;;;;5.53;3.83;;;19.00;71.90;;;;;;5026029;28;20037;-72
2021/05/28 10:37:28;;;;;;;6.13;2.85;;;19.20;68.30;;;;;;5035185;28;20180;-72
2021/05/28 10:39:54;;;;;;;5.97;3.25;;;19.20;69.80;;;;;;5027545;28;24447;-72
2021/05/28 10:42:20;;;;;;;5.03;3.00;;;19.00;71.10;;;;;;5021237;28;20114;-72
2021/05/28 10:44:46;;;;;;;7.95;4.15;;;18.90;71.00;;;;;;5024398;28;20112;-72
2021/05/28 10:47:14;;;;;;;6.90;3.85;;;19.00;71.60;;;;;;5037801;28;20037;-72
2021/05/28 10:49:44;;;;;;;4.90;3.72;;;19.00;72.30;;;;;;5036829;28;20468;-72
2021/05/28 10:52:12;;;;;;;5.38;3.45;;;19.20;69.50;;;;;;5021373;28;20068;-72
2021/05/28 10:54:42;;;;;;;6.13;3.55;;;19.20;69.40;;;;;;5028495;28;20496;-72
2021/05/28 10:57:44;;;;;;;5.30;3.05;;;19.10;69.80;;;;;;5032819;28;20032;-72
2021/05/28 11:00:19;;;;;;;4.50;2.88;;;19.20;64.60;;;;;;5003694;28;20060;-72
2021/05/28 11:02:46;;;;;;;4.72;2.67;;;19.20;68.10;;;;;;5021984;28;20444;-72
2021/05/28 11:05:12;;;;;;;4.78;2.33;;;19.40;68.30;;;;;;5030272;28;20034;-73
2021/05/28 11:07:43;;;;;;;5.15;2.50;;;19.70;68.50;;;;;;5025247;28;20030;-73
2021/05/28 11:10:19;;;;;;;5.32;2.75;;;20.10;65.90;;;;;;5040966;28;20033;-73
2021/05/28 11:12:45;;;;;;;4.03;2.65;;;20.50;64.40;;;;;;5021915;28;20444;-73
2021/05/28 11:15:14;;;;;;;3.50;2.05;;;20.90;66.20;;;;;;5028994;28;20053;-73
2021/05/28 11:18:00;;;;;;;4.88;1.95;;;21.40;64.40;;;;;;5020939;28;20464;-73
2021/05/28 11:20:35;;;;;;;3.85;2.35;;;21.80;58.60;;;;;;5033200;28;20029;-73
2021/05/28 11:23:21;;;;;;;5.20;2.70;;;22.00;55.30;;;;;;5022221;28;20067;-73
2021/05/28 11:25:54;;;;;;;4.45;2.10;;;22.10;58.30;;;;;;5026270;28;20077;-72
2021/05/28 11:28:22;;;;;;;4.25;2.75;;;22.30;57.50;;;;;;5021390;28;20115;-72
2021/05/28 11:30:59;;;;;;;6.53;2.63;;;22.00;57.00;;;;;;5026738;28;20095;-71
2021/05/28 11:33:33;;;;;;;3.70;2.25;;;21.90;56.40;;;;;;5024449;28;20052;-71
2021/05/28 11:36:00;;;;;;;3.78;2.58;;;21.20;55.20;;;;;;5035019;28;20047;-71
2021/05/28 11:38:33;;;;;;;5.93;1.92;;;20.80;58.80;;;;;;5024294;28;20123;-71
2021/05/28 11:40:59;;;;;;;3.60;2.20;;;20.80;58.00;;;;;;5029108;28;20516;-71
2021/05/28 11:43:34;;;;;;;4.43;2.00;;;20.70;59.10;;;;;;5027837;28;20855;-71
2021/05/28 11:45:59;;;;;;;3.38;2.30;;;20.80;60.10;;;;;;5032505;28;20033;-71
2021/05/28 11:48:27;;;;;;;4.43;1.90;;;21.00;59.30;;;;;;5028946;28;20123;-70
2021/05/28 11:51:01;;;;;;;4.75;1.88;;;20.90;56.30;;;;;;5029955;28;20144;-71
2021/05/28 11:53:35;;;;;;;3.03;1.70;;;21.10;55.50;;;;;;5026029;28;20044;-71
2021/05/28 11:56:02;;;;;;;;;;;21.40;55.20;;;;;;5030247;28;20503;-71
2021/05/28 11:58:32;;;;;;;4.05;1.88;;;21.40;51.90;;;;;;5030068;28;20102;-72
2021/05/28 12:01:00;;;;;;;3.10;1.20;;;21.50;56.50;;;;;;5035827;28;20046;-72
2021/05/28 12:03:26;;;;;;;3.42;1.20;;;21.50;52.60;;;;;;5029876;28;20029;-71
2021/05/28 12:05:53;;;;;;;2.97;1.33;;;21.60;55.50;;;;;;5029871;28;20096;-72
2021/05/28 12:08:28;;;;;;;4.10;1.45;;;21.90;53.20;;;;;;5028409;28;20480;-72
2021/05/28 12:10:56;;;;;;;2.92;1.48;;;22.20;53.60;;;;;;5044765;28;20040;-72
2021/05/28 12:13:23;;;;;;;3.17;1.50;;;22.70;55.20;;;;;;5030301;28;20112;-72
2021/05/28 12:15:50;;;;;;;3.25;1.60;;;23.00;52.80;;;;;;5028586;28;20073;-72
2021/05/28 12:18:20;;;;;;;2.42;1.27;;;23.20;53.90;;;;;;5035138;28;20108;-72
2021/05/28 12:20:53;;;;;;;3.72;1.35;;;23.20;50.10;;;;;;5031947;28;20519;-72
2021/05/28 12:23:21;;;;;;;2.72;1.30;;;23.40;50.90;;;;;;5032053;28;20378;-72
2021/05/28 12:25:58;;;;;;;3.22;1.33;;;23.50;51.30;;;;;;5025802;28;20521;-71
2021/05/28 12:28:35;;;;;;;2.63;1.30;;;23.70;50.60;;;;;;5034877;28;20404;-72
2021/05/28 12:31:10;;;;;;;2.60;0.90;;;23.90;47.90;;;;;;5038669;28;20033;-70
2021/05/28 12:33:37;;;;;;;3.00;1.60;;;23.70;49.20;;;;;;5026884;28;20483;-70
2021/05/28 12:36:05;;;;;;;1.63;0.90;;;23.70;50.30;;;;;;5026964;28;20065;-66
2021/05/28 12:38:37;;;;;;;3.58;1.80;;;23.70;49.70;;;;;;5042612;28;20159;-66
2021/05/28 12:41:05;;;;;;;2.53;1.60;;;24.00;48.50;;;;;;5031845;28;20131;-66
2021/05/28 12:43:33;;;;;;;5.75;1.60;;;23.80;48.70;;;;;;5029943;28;20497;-66
2021/05/28 12:45:59;;;;;;;2.00;1.10;;;23.50;49.80;;;;;;5027097;28;20100;-65
2021/05/28 12:48:46;;;;;;;3.15;1.30;;;23.30;49.40;;;;;;5043398;28;20390;-66
2021/05/28 12:51:13;;;;;;;2.35;1.30;;;23.00;48.80;;;;;;5030533;28;20317;-66